Time;durP1;ratioP1;P1;durP2;ratioP2;P2;SDS_P1;SDS_P2;PMS_P1;PMS_P2;Temp;Humidity;BMP_temperature;BMP_pressure;BME280_temperature;BME280_humidity;BME280_pressure;Samples;Min_cycle;Max_cycle;Signal;HPM_P1;HPM_P2
2022/06/04 00:00:48;;;;;;;20.30;14.40;;;19.50;99.90;;;;;;4969607;28;20874;-74
2022/06/04 00:03:14;;;;;;;14.77;13.27;;;19.40;99.90;;;;;;4967078;28;20878;-74
2022/06/04 00:05:43;;;;;;;17.20;13.00;;;19.40;99.90;;;;;;4961702;28;20446;-75
2022/06/04 00:08:10;;;;;;;14.60;12.83;;;19.40;99.90;;;;;;4960169;28;20424;-75
2022/06/04 00:16:09;;;;;;;14.00;12.50;;;19.40;99.90;;;;;;4965523;28;20497;-74
2022/06/04 00:18:36;;;;;;;15.00;13.20;;;19.40;99.90;;;;;;4969048;28;20517;-76
2022/06/04 00:21:01;;;;;;;14.37;12.30;;;19.40;99.90;;;;;;4968521;28;20419;-75
2022/06/04 00:23:27;;;;;;;15.23;12.30;;;19.40;99.90;;;;;;4968930;28;20791;-74
2022/06/04 00:25:56;;;;;;;14.17;12.63;;;19.30;99.90;;;;;;4968092;28;20224;-74
2022/06/04 00:28:23;;;;;;;14.73;13.23;;;19.30;99.90;;;;;;4967281;28;20176;-75
2022/06/04 00:30:49;;;;;;;14.47;12.80;;;19.80;99.90;;;;;;4968254;28;20432;-75
2022/06/04 00:33:18;;;;;;;15.83;13.50;;;19.00;99.90;;;;;;4967788;28;20938;-74
2022/06/04 00:35:45;;;;;;;16.10;13.57;;;19.00;99.90;;;;;;4967502;28;20484;-76
2022/06/04 00:38:13;;;;;;;14.90;12.63;;;18.90;99.90;;;;;;4967004;28;20481;-75
2022/06/04 00:40:56;;;;;;;15.57;13.97;;;18.80;99.90;;;;;;4969335;28;20415;-75
2022/06/04 00:43:22;;;;;;;13.80;12.40;;;18.80;99.90;;;;;;4954991;28;20458;-73
2022/06/04 00:46:25;;;;;;;16.07;14.47;;;18.70;99.90;;;;;;4961348;28;20541;-74
2022/06/04 00:48:51;;;;;;;15.77;13.70;;;18.70;99.90;;;;;;4968244;28;20413;-74
2022/06/04 00:51:17;;;;;;;15.53;13.00;;;18.60;99.90;;;;;;4973717;28;20782;-74
2022/06/04 00:53:43;;;;;;;14.20;12.50;;;18.60;99.90;;;;;;4978552;28;20187;-74
2022/06/04 00:56:37;;;;;;;16.30;14.60;;;18.60;99.90;;;;;;4969494;28;20191;-75
2022/06/04 00:59:41;;;;;;;16.50;14.40;;;18.60;99.90;;;;;;4947347;28;20187;-73
2022/06/04 01:02:21;;;;;;;15.60;14.03;;;18.50;99.90;;;;;;4968572;28;20910;-73
2022/06/04 01:05:19;;;;;;;16.27;14.67;;;18.40;99.90;;;;;;4968032;28;20435;-74
2022/06/04 01:08:11;;;;;;;15.10;13.40;;;18.40;99.90;;;;;;4968447;28;20399;-73
2022/06/04 01:11:01;;;;;;;23.93;13.97;;;18.40;99.90;;;;;;4969470;28;20411;-75
2022/06/04 01:14:16;;;;;;;15.60;13.30;;;18.50;99.90;;;;;;4958904;28;20438;-75
2022/06/04 01:17:04;;;;;;;14.27;12.27;;;18.40;99.90;;;;;;4930101;29;20448;-74
2022/06/04 01:19:49;;;;;;;14.70;13.20;;;18.50;99.90;;;;;;4971147;28;21303;-74
2022/06/04 01:22:41;;;;;;;15.30;13.70;;;18.50;99.90;;;;;;4978158;28;20834;-75
2022/06/04 01:25:33;;;;;;;18.50;13.03;;;18.60;99.90;;;;;;4973172;28;20443;-74
2022/06/04 01:28:04;;;;;;;17.57;13.23;;;18.60;99.90;;;;;;4972789;28;20412;-74
2022/06/04 01:30:39;;;;;;;14.47;13.03;;;18.60;99.90;;;;;;4980713;28;20471;-76
2022/06/04 01:33:22;;;;;;;13.50;12.07;;;18.60;99.90;;;;;;4952127;29;20438;-75
2022/06/04 01:36:06;;;;;;;14.10;12.40;;;18.60;99.90;;;;;;4953439;28;20428;-75
2022/06/04 01:38:46;;;;;;;14.10;12.70;;;18.60;99.90;;;;;;4964049;28;20423;-74
2022/06/04 01:41:19;;;;;;;14.50;12.97;;;18.50;99.90;;;;;;4972189;28;20403;-76
2022/06/04 01:43:56;;;;;;;14.70;13.20;;;18.40;99.90;;;;;;4968750;28;20600;-76
2022/06/04 01:46:30;;;;;;;15.97;14.20;;;18.30;99.90;;;;;;4970317;28;20877;-75
2022/06/04 01:49:02;;;;;;;13.93;12.53;;;18.30;99.90;;;;;;4971289;28;20419;-75
2022/06/04 01:51:32;;;;;;;14.13;12.73;;;18.20;99.90;;;;;;4971488;28;20477;-74
2022/06/04 01:54:07;;;;;;;15.93;13.20;;;18.20;99.90;;;;;;4967713;28;20441;-75
2022/06/04 01:56:41;;;;;;;13.70;12.00;;;18.20;99.90;;;;;;4975417;28;20450;-75
2022/06/04 01:59:16;;;;;;;13.90;12.50;;;18.20;99.90;;;;;;4972653;28;20425;-74
2022/06/04 02:01:43;;;;;;;14.10;12.60;;;18.20;99.90;;;;;;4970207;28;20422;-74
2022/06/04 02:04:14;;;;;;;14.67;13.27;;;18.30;99.90;;;;;;4964083;28;20530;-74
2022/06/04 02:09:42;;;;;;;14.77;13.27;;;18.20;99.90;;;;;;4978002;28;20437;-75
2022/06/04 02:12:10;;;;;;;15.13;13.30;;;18.10;99.90;;;;;;4985008;28;20420;-75
2022/06/04 02:14:37;;;;;;;14.67;13.20;;;18.10;99.90;;;;;;4977283;28;20435;-76
2022/06/04 02:17:07;;;;;;;15.20;13.70;;;18.10;99.90;;;;;;4982462;28;20436;-75
2022/06/04 02:19:32;;;;;;;14.30;12.90;;;18.10;99.90;;;;;;4990377;28;20457;-76
2022/06/04 02:21:59;;;;;;;15.20;13.20;;;18.00;99.90;;;;;;4987533;28;20455;-75
2022/06/04 02:24:24;;;;;;;15.70;13.83;;;17.90;99.90;;;;;;4971593;28;20196;-74
2022/06/04 02:26:50;;;;;;;15.13;13.63;;;17.90;99.90;;;;;;4972728;28;20499;-75
2022/06/04 02:29:16;;;;;;;15.80;14.13;;;17.90;99.90;;;;;;4970822;28;20264;-75
2022/06/04 02:31:49;;;;;;;15.10;13.50;;;17.90;99.90;;;;;;4964133;28;20172;-75
2022/06/04 02:34:27;;;;;;;16.33;13.90;;;17.90;99.90;;;;;;4971453;28;20249;-74
2022/06/04 02:37:24;;;;;;;16.03;14.33;;;17.90;99.90;;;;;;4970909;28;20453;-74
2022/06/04 02:39:53;;;;;;;15.00;13.50;;;17.70;99.90;;;;;;4972511;28;20443;-75
2022/06/04 02:42:43;;;;;;;16.10;14.40;;;17.70;99.90;;;;;;4972215;28;20408;-74
2022/06/04 02:45:17;;;;;;;15.63;14.03;;;17.70;99.90;;;;;;4971105;28;20504;-74
2022/06/04 02:47:59;;;;;;;16.87;14.43;;;17.80;99.90;;;;;;4970530;28;20414;-73
2022/06/04 02:50:32;;;;;;;16.67;14.97;;;17.80;99.90;;;;;;4972264;28;20423;-76
2022/06/04 02:53:00;;;;;;;16.33;14.70;;;17.70;99.90;;;;;;4971087;28;20439;-75
2022/06/04 02:55:42;;;;;;;15.63;14.00;;;17.70;99.90;;;;;;4972559;28;20423;-75
2022/06/04 02:58:12;;;;;;;19.77;16.20;;;17.70;99.90;;;;;;4972311;28;20830;-75
2022/06/04 03:00:38;;;;;;;16.93;15.13;;;17.80;99.90;;;;;;4964497;28;20408;-75
2022/06/04 03:03:03;;;;;;;16.87;14.13;;;17.90;99.90;;;;;;4968680;28;20451;-74
2022/06/04 03:05:29;;;;;;;16.30;14.60;;;17.90;99.90;;;;;;4971241;28;20223;-74
2022/06/04 03:08:00;;;;;;;17.93;15.00;;;17.90;99.90;;;;;;4971796;28;20568;-75
2022/06/04 03:10:31;;;;;;;19.40;16.40;;;17.90;99.90;;;;;;4972365;28;20207;-75
2022/06/04 03:12:57;;;;;;;15.63;14.13;;;18.00;99.90;;;;;;4971159;28;20965;-75
2022/06/04 03:15:23;;;;;;;17.10;15.40;;;18.00;99.90;;;;;;4972437;28;20435;-75
2022/06/04 03:17:49;;;;;;;16.87;15.17;;;18.10;99.90;;;;;;4971118;28;20179;-75
2022/06/04 03:20:19;;;;;;;16.83;15.13;;;18.00;99.90;;;;;;4972017;28;20254;-75
2022/06/04 03:22:44;;;;;;;16.40;14.70;;;18.00;99.90;;;;;;4970539;28;20517;-75
2022/06/04 03:25:11;;;;;;;16.27;13.70;;;17.90;99.90;;;;;;4970614;28;20976;-75
2022/06/04 03:27:37;;;;;;;15.77;13.93;;;17.90;99.90;;;;;;4971593;28;20208;-75
2022/06/04 03:30:03;;;;;;;17.70;14.23;;;17.90;99.90;;;;;;4968113;28;20462;-75
2022/06/04 03:32:29;;;;;;;15.70;14.20;;;17.80;99.90;;;;;;4969124;28;20729;-75
2022/06/04 03:34:54;;;;;;;17.97;14.90;;;17.70;99.90;;;;;;4969706;28;20420;-75
2022/06/04 03:37:20;;;;;;;16.63;14.67;;;17.70;99.90;;;;;;4970859;28;20179;-75
2022/06/04 03:39:46;;;;;;;16.70;15.00;;;17.50;99.90;;;;;;4971717;28;20649;-75
2022/06/04 03:42:11;;;;;;;16.67;14.53;;;17.50;99.90;;;;;;4970720;28;20179;-75
2022/06/04 03:44:38;;;;;;;15.63;14.13;;;17.50;99.90;;;;;;4967098;28;20199;-74
2022/06/04 03:47:03;;;;;;;18.17;14.63;;;17.50;99.90;;;;;;4969588;28;20172;-76
2022/06/04 03:49:29;;;;;;;16.23;14.53;;;17.50;99.90;;;;;;4969515;28;20469;-75
2022/06/04 03:51:55;;;;;;;15.73;14.20;;;17.50;99.90;;;;;;4969040;28;20176;-75
2022/06/04 03:54:52;;;;;;;17.67;14.67;;;17.40;99.90;;;;;;4971144;28;20738;-76
2022/06/04 03:59:51;;;;;;;15.47;13.70;;;17.30;99.90;;;;;;4968997;28;20489;-75
2022/06/04 04:02:17;;;;;;;16.00;14.30;;;17.30;99.90;;;;;;4968915;28;20427;-75
2022/06/04 04:04:42;;;;;;;16.70;15.00;;;17.40;99.90;;;;;;4970120;28;20469;-75
2022/06/04 04:07:07;;;;;;;16.23;14.63;;;17.40;99.90;;;;;;4951644;28;20247;-75
2022/06/04 04:09:33;;;;;;;14.97;13.50;;;17.50;99.90;;;;;;4952129;28;20271;-75
2022/06/04 04:11:58;;;;;;;18.67;15.57;;;17.60;99.90;;;;;;4969189;28;20271;-75
2022/06/04 04:14:24;;;;;;;15.83;14.03;;;17.60;99.90;;;;;;4967286;28;20560;-75
2022/06/04 04:16:49;;;;;;;16.43;14.70;;;17.70;99.90;;;;;;4970532;28;20200;-75
2022/06/04 04:19:15;;;;;;;17.23;14.23;;;17.80;99.90;;;;;;4969854;28;20172;-75
2022/06/04 04:21:41;;;;;;;15.23;13.63;;;17.90;99.90;;;;;;4970668;28;20172;-75
2022/06/04 04:24:07;;;;;;;15.50;14.00;;;18.00;99.90;;;;;;4968747;28;20254;-75
2022/06/04 04:26:32;;;;;;;19.70;15.00;;;18.10;99.90;;;;;;4970860;28;20214;-76
2022/06/04 04:28:58;;;;;;;18.33;14.20;;;18.20;99.90;;;;;;4970668;28;20458;-75
2022/06/04 04:31:23;;;;;;;15.60;14.10;;;18.20;99.90;;;;;;4962019;28;20180;-75
2022/06/04 04:33:49;;;;;;;17.20;15.50;;;18.30;99.90;;;;;;4969916;28;20199;-75
2022/06/04 04:36:15;;;;;;;17.70;15.87;;;18.30;99.90;;;;;;4970324;28;20231;-75
2022/06/04 04:38:40;;;;;;;20.83;15.27;;;18.20;99.90;;;;;;4969938;28;20168;-75
2022/06/04 04:41:14;;;;;;;17.43;15.73;;;18.30;99.90;;;;;;4969323;28;20184;-75
2022/06/04 04:43:41;;;;;;;16.50;14.80;;;18.40;99.90;;;;;;4961912;28;20191;-75
2022/06/04 04:46:09;;;;;;;18.67;14.77;;;18.50;99.90;;;;;;4968757;28;20443;-75
2022/06/04 04:48:35;;;;;;;15.37;13.77;;;18.70;99.90;;;;;;4968980;28;20408;-75
2022/06/04 04:51:00;;;;;;;16.30;14.70;;;18.80;99.90;;;;;;4969381;28;20763;-75
2022/06/04 04:53:27;;;;;;;15.03;13.43;;;18.90;99.90;;;;;;4969916;28;20543;-75
2022/06/04 04:55:53;;;;;;;16.03;14.30;;;19.00;99.90;;;;;;4969942;28;20191;-76
2022/06/04 04:58:19;;;;;;;16.27;14.67;;;19.20;99.90;;;;;;4970191;28;20447;-74
2022/06/04 05:00:45;;;;;;;16.60;14.53;;;19.30;99.90;;;;;;4970382;28;20443;-76
2022/06/04 05:03:11;;;;;;;17.70;14.93;;;19.50;99.90;;;;;;4968300;28;20329;-76
2022/06/04 05:05:37;;;;;;;18.23;16.00;;;19.60;99.90;;;;;;4968095;28;20516;-76
2022/06/04 05:08:03;;;;;;;20.30;16.63;;;19.80;99.90;;;;;;4969714;28;20702;-75
2022/06/04 05:10:28;;;;;;;18.57;16.60;;;19.90;99.90;;;;;;4969711;28;20179;-75
2022/06/04 05:12:55;;;;;;;20.47;17.90;;;20.10;99.90;;;;;;4961179;28;20522;-75
2022/06/04 05:15:21;;;;;;;22.57;20.17;;;20.30;99.90;;;;;;4970664;28;20612;-75
2022/06/04 05:17:47;;;;;;;24.23;21.63;;;20.40;99.90;;;;;;4969242;28;20411;-76
2022/06/04 05:20:13;;;;;;;24.43;21.77;;;20.50;99.90;;;;;;4969582;28;20446;-75
2022/06/04 05:22:38;;;;;;;23.87;21.33;;;20.60;99.90;;;;;;4968865;28;20275;-73
2022/06/04 05:25:05;;;;;;;27.67;22.40;;;20.70;99.90;;;;;;4970494;28;20221;-75
2022/06/04 05:27:30;;;;;;;32.13;23.47;;;20.80;99.90;;;;;;4969102;28;20178;-76
2022/06/04 05:29:56;;;;;;;29.40;24.10;;;20.90;99.90;;;;;;4961711;28;20423;-75
2022/06/04 05:32:22;;;;;;;26.60;22.80;;;21.10;99.90;;;;;;4969116;28;20198;-75
2022/06/04 05:34:47;;;;;;;27.20;23.33;;;21.60;99.90;;;;;;4967816;28;20450;-75
2022/06/04 05:37:13;;;;;;;25.17;21.80;;;21.60;99.90;;;;;;4969205;28;20222;-75
2022/06/04 05:39:39;;;;;;;22.90;20.50;;;21.80;99.90;;;;;;4950685;29;20235;-73
2022/06/04 05:42:05;;;;;;;23.23;20.27;;;21.90;99.90;;;;;;4966605;28;20176;-74
2022/06/04 05:44:31;;;;;;;19.50;17.37;;;21.90;99.90;;;;;;4972488;28;20280;-73
2022/06/04 05:46:57;;;;;;;26.00;20.70;;;21.90;99.90;;;;;;4969712;28;20917;-75
2022/06/04 05:49:23;;;;;;;20.70;18.50;;;22.00;99.90;;;;;;4968719;28;20172;-75
2022/06/04 05:51:51;;;;;;;23.20;20.33;;;22.10;99.90;;;;;;4969507;28;20164;-75
2022/06/04 05:54:17;;;;;;;22.13;19.27;;;22.40;99.90;;;;;;4969284;28;20429;-75
2022/06/04 05:56:45;;;;;;;21.47;19.20;;;22.70;99.90;;;;;;4969605;28;20427;-75
2022/06/04 05:59:14;;;;;;;20.70;18.60;;;22.80;99.90;;;;;;4969852;28;20967;-74
2022/06/04 06:01:41;;;;;;;22.17;19.50;;;22.90;99.90;;;;;;4971558;28;20822;-75
2022/06/04 06:04:09;;;;;;;23.40;20.30;;;22.80;97.80;;;;;;4972352;28;20458;-75
2022/06/04 06:06:38;;;;;;;22.70;19.40;;;22.80;97.80;;;;;;4973160;28;21011;-74
2022/06/04 06:09:06;;;;;;;22.40;20.00;;;22.70;99.90;;;;;;4972424;28;20423;-75
2022/06/04 06:11:32;;;;;;;21.27;19.07;;;22.60;98.70;;;;;;4972048;28;20834;-75
2022/06/04 06:13:58;;;;;;;22.03;19.73;;;22.60;99.90;;;;;;4974453;28;20429;-75
2022/06/04 06:16:31;;;;;;;22.40;19.60;;;22.60;97.40;;;;;;4977216;28;20442;-75
2022/06/04 06:18:58;;;;;;;23.50;19.90;;;22.40;99.90;;;;;;4972414;28;20414;-74
2022/06/04 06:21:27;;;;;;;20.70;18.60;;;22.40;99.90;;;;;;4972408;28;20597;-74
2022/06/04 06:23:54;;;;;;;21.30;19.10;;;22.40;99.90;;;;;;4972476;28;20460;-73
2022/06/04 06:26:25;;;;;;;21.80;19.50;;;22.50;98.20;;;;;;4971206;28;20450;-75
2022/06/04 06:28:51;;;;;;;22.37;19.93;;;22.50;97.00;;;;;;4972551;28;20418;-75
2022/06/04 06:31:20;;;;;;;20.90;18.70;;;22.60;94.30;;;;;;4970828;28;20423;-75
2022/06/04 06:33:46;;;;;;;21.27;19.13;;;22.50;96.80;;;;;;4971814;28;20493;-75
2022/06/04 06:36:14;;;;;;;28.27;21.43;;;22.40;98.90;;;;;;4972561;28;20510;-76
2022/06/04 06:38:40;;;;;;;22.23;19.83;;;22.30;98.80;;;;;;4972429;28;20509;-75
2022/06/04 06:41:07;;;;;;;20.83;18.60;;;22.40;99.90;;;;;;4971669;28;20485;-75
2022/06/04 06:46:07;;;;;;;24.87;21.10;;;22.10;99.90;;;;;;4972666;28;20454;-75
2022/06/04 06:48:34;;;;;;;24.10;19.80;;;22.00;99.90;;;;;;4971732;28;20550;-74
2022/06/04 06:51:12;;;;;;;23.27;19.20;;;21.90;99.90;;;;;;4970361;28;20422;-75
2022/06/04 06:53:38;;;;;;;21.67;19.37;;;22.00;99.90;;;;;;4971380;28;20497;-74
2022/06/04 06:56:12;;;;;;;31.00;21.37;;;22.00;99.90;;;;;;4972391;28;20534;-75
2022/06/04 06:58:38;;;;;;;23.10;20.67;;;22.00;99.90;;;;;;4970990;28;20182;-74
2022/06/04 07:01:04;;;;;;;25.38;20.52;;;22.10;99.90;;;;;;4962268;28;20418;-75
2022/06/04 07:03:30;;;;;;;22.90;19.03;;;22.20;99.90;;;;;;4969041;28;20197;-76
2022/06/04 07:05:55;;;;;;;16.47;13.90;;;22.50;98.20;;;;;;4982340;28;20434;-74
2022/06/04 07:08:25;;;;;;;12.90;11.60;;;22.80;95.40;;;;;;4978618;28;20187;-75
2022/06/04 07:10:51;;;;;;;14.50;10.80;;;23.00;89.80;;;;;;4971140;28;20176;-75
2022/06/04 07:13:16;;;;;;;14.67;10.23;;;23.10;88.50;;;;;;4969471;28;20423;-75
2022/06/04 07:15:43;;;;;;;11.73;10.57;;;23.20;88.30;;;;;;4972065;28;20195;-74
2022/06/04 07:18:11;;;;;;;11.30;10.20;;;23.30;84.00;;;;;;4970609;28;20629;-75
2022/06/04 07:20:38;;;;;;;12.80;11.17;;;23.30;80.10;;;;;;4971474;28;20722;-75
2022/06/04 07:23:03;;;;;;;12.10;10.37;;;23.40;77.90;;;;;;4970390;28;20873;-76
2022/06/04 07:25:29;;;;;;;16.23;11.63;;;23.50;78.50;;;;;;4971418;28;20469;-75
2022/06/04 07:27:55;;;;;;;12.77;11.33;;;23.60;74.60;;;;;;4971429;28;20175;-74
2022/06/04 07:30:20;;;;;;;12.20;11.00;;;23.80;68.40;;;;;;4961521;28;20803;-75
2022/06/04 07:32:46;;;;;;;11.53;10.33;;;24.30;70.00;;;;;;4950337;28;20208;-75
2022/06/04 07:35:11;;;;;;;12.90;10.83;;;24.00;73.70;;;;;;4952166;28;20279;-74
2022/06/04 07:37:37;;;;;;;14.07;11.60;;;24.60;67.30;;;;;;4951382;28;20160;-75
2022/06/04 07:40:03;;;;;;;12.23;11.03;;;24.00;62.80;;;;;;4968303;28;20290;-74
2022/06/04 07:42:29;;;;;;;14.27;12.60;;;23.90;63.90;;;;;;4970481;28;20167;-75
2022/06/04 07:44:55;;;;;;;13.20;11.90;;;23.80;61.00;;;;;;4966940;28;21071;-74
2022/06/04 07:47:20;;;;;;;15.40;13.07;;;23.80;61.90;;;;;;4970614;28;20549;-74
2022/06/04 07:49:46;;;;;;;16.93;15.13;;;23.80;62.30;;;;;;4970768;28;20406;-74
2022/06/04 07:52:11;;;;;;;16.20;14.00;;;23.70;62.60;;;;;;4968630;28;20175;-74
2022/06/04 07:54:38;;;;;;;18.67;15.00;;;23.60;62.20;;;;;;4970673;28;20186;-74
2022/06/04 07:57:04;;;;;;;17.50;15.20;;;23.70;61.20;;;;;;4970799;28;20237;-74
2022/06/04 07:59:30;;;;;;;16.87;15.13;;;23.80;60.10;;;;;;4970887;28;20995;-74
2022/06/04 08:01:55;;;;;;;18.70;16.00;;;23.80;56.30;;;;;;4970369;28;20224;-74
2022/06/04 08:04:21;;;;;;;18.87;15.53;;;23.80;53.70;;;;;;4969293;28;20246;-74
2022/06/04 08:06:46;;;;;;;17.53;15.63;;;23.70;56.90;;;;;;4969396;28;20187;-74
2022/06/04 08:09:12;;;;;;;18.73;16.73;;;23.70;61.00;;;;;;4970405;28;20242;-75
2022/06/04 08:11:39;;;;;;;18.47;16.50;;;23.60;60.70;;;;;;4970047;28;20168;-74
2022/06/04 08:14:09;;;;;;;17.47;15.57;;;23.50;62.20;;;;;;4970481;28;20422;-75
2022/06/04 08:16:41;;;;;;;18.67;15.60;;;23.40;64.20;;;;;;4969146;28;20640;-74
2022/06/04 08:19:08;;;;;;;17.27;15.23;;;23.30;67.10;;;;;;4969813;28;20904;-75
2022/06/04 08:21:35;;;;;;;17.83;15.90;;;23.30;66.50;;;;;;4968428;28;20418;-75
2022/06/04 08:24:02;;;;;;;22.10;18.27;;;23.30;70.40;;;;;;4969258;28;20466;-74
2022/06/04 08:26:27;;;;;;;17.70;15.77;;;23.20;68.10;;;;;;4970608;28;21011;-74
2022/06/04 08:28:53;;;;;;;19.37;16.90;;;23.10;67.60;;;;;;4970307;28;20472;-74
2022/06/04 08:31:19;;;;;;;18.20;16.23;;;23.00;69.20;;;;;;4969872;28;20184;-74
2022/06/04 08:33:45;;;;;;;16.73;15.00;;;23.00;75.10;;;;;;4969736;28;20181;-74
2022/06/04 08:36:13;;;;;;;17.33;15.43;;;23.40;73.00;;;;;;4968433;28;20443;-74
2022/06/04 08:38:39;;;;;;;18.93;17.03;;;23.00;75.90;;;;;;4970070;28;20175;-75
2022/06/04 08:41:07;;;;;;;22.87;18.67;;;22.90;78.00;;;;;;4969839;28;20426;-74
2022/06/04 08:43:38;;;;;;;19.67;16.03;;;22.80;74.60;;;;;;4969610;28;20466;-75
2022/06/04 08:46:14;;;;;;;19.87;16.80;;;22.70;80.40;;;;;;4970369;28;20419;-74
2022/06/04 08:48:42;;;;;;;18.73;16.70;;;22.80;80.40;;;;;;4969255;28;20497;-74
2022/06/04 08:51:19;;;;;;;22.77;17.13;;;23.00;76.40;;;;;;4968102;28;20699;-73
2022/06/04 08:53:47;;;;;;;18.27;16.00;;;23.00;73.20;;;;;;4968147;28;20963;-75
2022/06/04 08:59:35;;;;;;;17.10;14.97;;;22.90;84.10;;;;;;4969781;28;20422;-74
2022/06/04 09:02:04;;;;;;;16.43;14.80;;;22.90;83.90;;;;;;4969481;28;20403;-75
2022/06/04 09:04:43;;;;;;;17.87;15.70;;;22.80;85.10;;;;;;4966539;28;20474;-75
2022/06/04 09:07:20;;;;;;;16.87;15.17;;;22.80;89.50;;;;;;4969686;28;20486;-73
2022/06/04 09:10:06;;;;;;;18.80;14.73;;;22.90;91.40;;;;;;4970203;28;20398;-73
2022/06/04 09:12:49;;;;;;;17.97;15.27;;;23.10;87.00;;;;;;4968790;28;21022;-75
2022/06/04 09:15:37;;;;;;;16.83;15.13;;;23.20;82.40;;;;;;4970125;28;20422;-74
2022/06/04 09:18:27;;;;;;;19.97;15.63;;;23.30;76.40;;;;;;4968861;28;20914;-74
2022/06/04 09:20:55;;;;;;;17.73;15.90;;;23.40;74.20;;;;;;4969355;28;20784;-74
2022/06/04 09:23:36;;;;;;;18.60;16.70;;;23.30;72.30;;;;;;4969074;28;20484;-73
2022/06/04 09:26:13;;;;;;;19.43;16.40;;;23.20;76.50;;;;;;4958378;28;20522;-75
2022/06/04 09:28:44;;;;;;;21.33;16.63;;;23.10;79.10;;;;;;4961075;28;20509;-74
2022/06/04 09:31:48;;;;;;;19.53;17.50;;;23.10;80.40;;;;;;4967888;28;20537;-75
2022/06/04 09:34:28;;;;;;;20.20;17.37;;;23.10;83.30;;;;;;4948390;28;20414;-74
2022/06/04 09:36:53;;;;;;;20.83;17.50;;;23.10;79.40;;;;;;4973655;28;20430;-74
2022/06/04 09:39:23;;;;;;;19.47;17.47;;;23.30;80.50;;;;;;4975162;28;21269;-73
2022/06/04 09:41:57;;;;;;;21.00;18.20;;;23.40;73.90;;;;;;4972072;28;20661;-74
2022/06/04 09:44:24;;;;;;;19.83;17.33;;;23.50;74.90;;;;;;4973099;28;20462;-73
2022/06/04 09:46:56;;;;;;;18.97;16.93;;;23.70;75.50;;;;;;4983406;28;20780;-74
2022/06/04 09:49:34;;;;;;;25.50;17.93;;;23.80;73.90;;;;;;4974692;28;20430;-74
2022/06/04 09:52:12;;;;;;;20.23;18.07;;;23.90;67.90;;;;;;4973070;28;20838;-74
2022/06/04 09:54:37;;;;;;;23.13;18.03;;;23.60;72.10;;;;;;4972177;28;20418;-75
2022/06/04 09:57:05;;;;;;;22.87;17.13;;;23.60;76.20;;;;;;4971759;28;20518;-74
2022/06/04 09:59:33;;;;;;;19.90;17.80;;;23.60;85.80;;;;;;4972798;28;20183;-75
2022/06/04 10:02:15;;;;;;;19.40;17.37;;;23.50;87.50;;;;;;4972888;28;20422;-74
2022/06/04 10:04:47;;;;;;;20.03;17.93;;;23.50;88.90;;;;;;4972616;28;20933;-75
2022/06/04 10:07:16;;;;;;;20.40;18.30;;;23.60;92.80;;;;;;4971194;28;20914;-75
2022/06/04 10:09:57;;;;;;;20.70;18.47;;;23.70;90.90;;;;;;4973072;28;20426;-74
2022/06/04 10:15:24;;;;;;;26.97;20.07;;;23.90;89.00;;;;;;4969271;28;20429;-74
2022/06/04 10:18:26;;;;;;;22.43;20.13;;;23.70;90.60;;;;;;4954656;28;20481;-75
2022/06/04 10:21:23;;;;;;;23.30;20.80;;;23.40;91.50;;;;;;4971909;28;20726;-75
2022/06/04 10:23:51;;;;;;;24.40;21.70;;;23.70;95.10;;;;;;4960445;28;20979;-75
2022/06/04 10:26:38;;;;;;;23.60;21.20;;;23.50;93.10;;;;;;4973222;28;20434;-76
2022/06/04 10:29:33;;;;;;;24.83;22.20;;;23.50;93.70;;;;;;4972827;28;20477;-75
2022/06/04 10:32:23;;;;;;;24.87;22.27;;;23.60;92.90;;;;;;4972090;28;20414;-75
2022/06/04 10:35:09;;;;;;;26.10;23.30;;;23.40;90.40;;;;;;4971157;28;20430;-75
2022/06/04 10:37:52;;;;;;;24.57;22.00;;;23.40;91.60;;;;;;4972252;28;20773;-75
2022/06/04 10:40:44;;;;;;;27.93;22.30;;;23.40;94.90;;;;;;4972607;28;20521;-75
2022/06/04 10:43:18;;;;;;;25.47;22.77;;;23.30;96.80;;;;;;4971611;28;20451;-73
2022/06/04 10:45:57;;;;;;;25.83;23.13;;;23.40;96.20;;;;;;4971450;28;20532;-76
2022/06/04 10:48:33;;;;;;;26.67;23.80;;;23.30;93.40;;;;;;4971525;28;20838;-75
2022/06/04 10:51:38;;;;;;;25.17;22.40;;;23.20;94.40;;;;;;4970041;28;20766;-74
2022/06/04 10:54:08;;;;;;;25.23;22.60;;;23.30;94.80;;;;;;4919811;28;20498;-73
2022/06/04 10:56:57;;;;;;;28.30;23.87;;;23.40;92.10;;;;;;4952938;28;20453;-74
2022/06/04 10:59:54;;;;;;;25.47;22.57;;;23.70;92.20;;;;;;4952844;28;20490;-75
2022/06/04 11:02:39;;;;;;;25.23;22.60;;;24.00;83.10;;;;;;4953622;28;20419;-74
2022/06/04 11:05:22;;;;;;;26.33;23.27;;;24.20;82.40;;;;;;4964057;28;20470;-74
2022/06/04 11:07:59;;;;;;;26.83;23.47;;;24.40;77.30;;;;;;4970432;28;20798;-75
2022/06/04 11:10:30;;;;;;;27.47;24.50;;;24.80;66.00;;;;;;4972348;28;20510;-73
2022/06/04 11:13:04;;;;;;;28.20;24.07;;;25.10;50.60;;;;;;4971366;28;20411;-74
2022/06/04 11:15:41;;;;;;;26.87;24.07;;;25.40;50.80;;;;;;4970286;28;20608;-75
2022/06/04 11:18:17;;;;;;;27.40;24.40;;;25.60;51.70;;;;;;4971157;28;20402;-75
2022/06/04 11:21:21;;;;;;;27.30;24.43;;;25.60;51.00;;;;;;4971422;28;20411;-75
2022/06/04 11:24:11;;;;;;;24.87;22.37;;;25.80;51.10;;;;;;4969981;28;20960;-75
2022/06/04 11:26:47;;;;;;;24.37;21.80;;;26.10;53.70;;;;;;4971303;28;20450;-74
2022/06/04 11:29:14;;;;;;;23.90;21.30;;;26.60;51.60;;;;;;4971609;28;20494;-75
2022/06/04 11:31:42;;;;;;;26.23;22.40;;;27.40;37.10;;;;;;4969734;28;20485;-75
2022/06/04 11:34:41;;;;;;;24.43;21.83;;;27.90;26.40;;;;;;4969090;28;20183;-76
2022/06/04 11:37:12;;;;;;;18.80;17.00;;;29.10;19.80;;;;;;4971054;28;20263;-76
2022/06/04 11:39:54;;;;;;;20.73;18.60;;;30.60;9.90;;;;;;4971437;28;20179;-76
2022/06/04 11:42:35;;;;;;;16.83;15.10;;;32.70;1.00;;;;;;4970745;28;20745;-77
2022/06/04 11:45:31;;;;;;;18.38;16.50;;;34.20;1.00;;;;;;4962814;28;20229;-76
2022/06/04 11:48:24;;;;;;;19.17;17.27;;;34.60;1.00;;;;;;4968769;28;20179;-76
2022/06/04 11:50:56;;;;;;;18.58;16.77;;;35.30;1.00;;;;;;4972159;28;20531;-76
2022/06/04 11:53:22;;;;;;;17.50;15.90;;;35.90;1.00;;;;;;4970115;28;20649;-75
2022/06/04 11:56:14;;;;;;;15.98;14.38;;;36.00;1.00;;;;;;4971853;28;20198;-76
2022/06/04 11:59:01;;;;;;;15.25;13.70;;;36.80;1.00;;;;;;4971050;28;20218;-77
2022/06/04 12:01:48;;;;;;;17.45;13.73;;;37.70;1.00;;;;;;4969391;28;20229;-77
2022/06/04 12:04:16;;;;;;;14.77;12.98;;;37.90;1.00;;;;;;4969283;28;20388;-77
2022/06/04 12:06:46;;;;;;;13.85;12.55;;;39.50;1.00;;;;;;4971103;28;20203;-77
2022/06/04 12:09:20;;;;;;;12.98;11.80;;;40.30;1.00;;;;;;4970269;28;20171;-77
2022/06/04 12:11:54;;;;;;;15.77;14.27;;;39.60;1.00;;;;;;4970627;28;20657;-77
2022/06/04 12:14:37;;;;;;;13.40;11.85;;;38.70;1.00;;;;;;4966041;28;20192;-78
2022/06/04 12:17:24;;;;;;;13.85;12.55;;;37.60;1.00;;;;;;4968382;28;20257;-77
2022/06/04 12:26:34;;;;;;;14.13;12.75;;;32.50;1.00;;;;;;4969750;28;20218;-76
2022/06/04 12:29:00;;;;;;;15.20;13.73;;;31.80;1.00;;;;;;4969211;28;20176;-75
2022/06/04 12:31:37;;;;;;;14.75;13.35;;;31.50;1.00;;;;;;4969622;28;20193;-76
2022/06/04 12:34:36;;;;;;;14.13;12.73;;;31.10;1.00;;;;;;4969801;28;20540;-76
2022/06/04 12:37:03;;;;;;;13.32;11.98;;;31.00;1.00;;;;;;4970184;28;20595;-75
2022/06/04 12:39:33;;;;;;;13.07;11.70;;;30.80;1.00;;;;;;4969960;28;20266;-75
2022/06/04 12:42:02;;;;;;;12.10;10.45;;;31.40;1.00;;;;;;4968286;28;20654;-76
2022/06/04 12:44:28;;;;;;;12.32;9.23;;;31.70;1.00;;;;;;4970296;28;20290;-76
2022/06/04 12:46:56;;;;;;;11.50;10.10;;;32.00;1.00;;;;;;4969002;28;20562;-76
2022/06/04 12:49:47;;;;;;;11.27;10.25;;;32.30;1.00;;;;;;4967461;28;20187;-76
2022/06/04 12:52:31;;;;;;;11.02;9.90;;;32.70;1.00;;;;;;4969036;28;20185;-75
2022/06/04 12:55:08;;;;;;;11.48;10.38;;;33.40;1.00;;;;;;4970013;28;20183;-76
2022/06/04 12:57:48;;;;;;;10.82;9.60;;;34.10;1.00;;;;;;4969876;28;20186;-76
2022/06/04 13:00:17;;;;;;;9.98;9.07;;;34.60;1.00;;;;;;4968920;28;20174;-77
2022/06/04 13:03:13;;;;;;;11.52;10.50;;;35.20;1.00;;;;;;4967995;28;20175;-76
2022/06/04 13:06:03;;;;;;;9.65;8.75;;;36.50;1.00;;;;;;4966748;28;20202;-77
2022/06/04 13:08:50;;;;;;;9.85;8.95;;;38.20;1.00;;;;;;4970232;28;20846;-77
2022/06/04 13:11:34;;;;;;;8.77;7.88;;;38.80;1.00;;;;;;4982259;28;20185;-76
2022/06/04 13:14:17;;;;;;;11.93;8.90;;;39.40;1.00;;;;;;4976743;28;20182;-77
2022/06/04 13:16:56;;;;;;;10.13;8.50;;;39.60;1.00;;;;;;4976442;28;20605;-77
2022/06/04 13:19:40;;;;;;;8.93;8.02;;;39.10;1.00;;;;;;4974875;28;20187;-77
2022/06/04 13:22:33;;;;;;;8.32;7.63;;;39.10;1.00;;;;;;4975743;28;20602;-77